sensor_id;sensor_type;location;lat;lon;timestamp;P1;durP1;ratioP1;P2;durP2;ratioP2
63738;SDS011;68816;45.558;10.070;2023-05-10T00:00:46;8.40;;;6.60;;
63738;SDS011;68816;45.558;10.070;2023-05-10T00:03:12;9.77;;;6.50;;
63738;SDS011;68816;45.558;10.070;2023-05-10T00:05:37;10.07;;;6.45;;
63738;SDS011;68816;45.558;10.070;2023-05-10T00:08:03;7.10;;;6.40;;
63738;SDS011;68816;45.558;10.070;2023-05-10T00:15:19;5.30;;;4.80;;
63738;SDS011;68816;45.558;10.070;2023-05-10T00:17:44;8.10;;;5.60;;
63738;SDS011;68816;45.558;10.070;2023-05-10T00:20:10;6.25;;;5.25;;
63738;SDS011;68816;45.558;10.070;2023-05-10T00:22:35;6.80;;;5.32;;
63738;SDS011;68816;45.558;10.070;2023-05-10T00:25:01;6.63;;;5.35;;
63738;SDS011;68816;45.558;10.070;2023-05-10T00:27:27;8.93;;;5.80;;
63738;SDS011;68816;45.558;10.070;2023-05-10T00:29:52;8.38;;;6.28;;
63738;SDS011;68816;45.558;10.070;2023-05-10T00:32:18;8.38;;;6.38;;
63738;SDS011;68816;45.558;10.070;2023-05-10T00:34:43;7.15;;;6.43;;
63738;SDS011;68816;45.558;10.070;2023-05-10T00:37:08;7.80;;;6.57;;
63738;SDS011;68816;45.558;10.070;2023-05-10T00:39:34;8.57;;;6.70;;
63738;SDS011;68816;45.558;10.070;2023-05-10T00:41:59;8.10;;;6.88;;
63738;SDS011;68816;45.558;10.070;2023-05-10T00:44:25;8.45;;;6.07;;
63738;SDS011;68816;45.558;10.070;2023-05-10T00:46:51;7.30;;;6.10;;
63738;SDS011;68816;45.558;10.070;2023-05-10T00:49:17;8.02;;;6.47;;
63738;SDS011;68816;45.558;10.070;2023-05-10T00:51:44;8.00;;;5.78;;
63738;SDS011;68816;45.558;10.070;2023-05-10T00:54:13;6.68;;;5.20;;
63738;SDS011;68816;45.558;10.070;2023-05-10T00:56:40;6.32;;;5.40;;
63738;SDS011;68816;45.558;10.070;2023-05-10T00:59:06;7.03;;;5.13;;
63738;SDS011;68816;45.558;10.070;2023-05-10T01:01:33;7.32;;;5.93;;
63738;SDS011;68816;45.558;10.070;2023-05-10T01:04:00;7.35;;;5.80;;
63738;SDS011;68816;45.558;10.070;2023-05-10T01:06:25;7.25;;;6.07;;
63738;SDS011;68816;45.558;10.070;2023-05-10T01:08:51;7.13;;;5.82;;
63738;SDS011;68816;45.558;10.070;2023-05-10T01:11:16;7.07;;;5.45;;
63738;SDS011;68816;45.558;10.070;2023-05-10T01:13:42;6.35;;;5.55;;
63738;SDS011;68816;45.558;10.070;2023-05-10T01:16:12;6.80;;;5.15;;
63738;SDS011;68816;45.558;10.070;2023-05-10T01:18:39;9.20;;;6.05;;
63738;SDS011;68816;45.558;10.070;2023-05-10T01:37:16;8.00;;;6.10;;
63738;SDS011;68816;45.558;10.070;2023-05-10T01:39:54;8.13;;;6.07;;
63738;SDS011;68816;45.558;10.070;2023-05-10T01:42:29;8.43;;;6.10;;
63738;SDS011;68816;45.558;10.070;2023-05-10T01:45:07;8.18;;;6.30;;
63738;SDS011;68816;45.558;10.070;2023-05-10T01:47:43;6.82;;;5.82;;
63738;SDS011;68816;45.558;10.070;2023-05-10T01:50:15;8.32;;;5.90;;
63738;SDS011;68816;45.558;10.070;2023-05-10T01:52:47;7.40;;;6.07;;
63738;SDS011;68816;45.558;10.070;2023-05-10T01:55:20;9.85;;;6.78;;
63738;SDS011;68816;45.558;10.070;2023-05-10T01:57:48;9.18;;;6.60;;
63738;SDS011;68816;45.558;10.070;2023-05-10T02:00:17;8.35;;;6.45;;
63738;SDS011;68816;45.558;10.070;2023-05-10T02:02:45;8.82;;;6.63;;
63738;SDS011;68816;45.558;10.070;2023-05-10T02:05:12;10.00;;;6.78;;
63738;SDS011;68816;45.558;10.070;2023-05-10T02:07:40;9.35;;;7.63;;
63738;SDS011;68816;45.558;10.070;2023-05-10T02:10:06;9.82;;;6.70;;
63738;SDS011;68816;45.558;10.070;2023-05-10T02:12:41;8.13;;;6.60;;
63738;SDS011;68816;45.558;10.070;2023-05-10T02:15:11;7.45;;;6.32;;
63738;SDS011;68816;45.558;10.070;2023-05-10T02:17:40;9.35;;;6.68;;
63738;SDS011;68816;45.558;10.070;2023-05-10T02:20:07;9.20;;;6.90;;
63738;SDS011;68816;45.558;10.070;2023-05-10T02:22:34;7.78;;;6.65;;
63738;SDS011;68816;45.558;10.070;2023-05-10T02:25:01;9.70;;;7.00;;
63738;SDS011;68816;45.558;10.070;2023-05-10T02:27:28;9.25;;;6.63;;
63738;SDS011;68816;45.558;10.070;2023-05-10T02:29:55;7.65;;;6.30;;
63738;SDS011;68816;45.558;10.070;2023-05-10T02:32:23;8.40;;;6.43;;
63738;SDS011;68816;45.558;10.070;2023-05-10T02:34:51;7.85;;;5.88;;
63738;SDS011;68816;45.558;10.070;2023-05-10T02:37:19;7.53;;;5.95;;
63738;SDS011;68816;45.558;10.070;2023-05-10T02:39:46;9.18;;;5.95;;
63738;SDS011;68816;45.558;10.070;2023-05-10T02:42:15;9.48;;;6.22;;
63738;SDS011;68816;45.558;10.070;2023-05-10T02:44:43;8.10;;;5.95;;
63738;SDS011;68816;45.558;10.070;2023-05-10T02:47:10;7.18;;;5.78;;
63738;SDS011;68816;45.558;10.070;2023-05-10T02:49:36;8.27;;;6.15;;
63738;SDS011;68816;45.558;10.070;2023-05-10T02:52:02;8.63;;;6.00;;
63738;SDS011;68816;45.558;10.070;2023-05-10T02:54:33;10.80;;;6.63;;
63738;SDS011;68816;45.558;10.070;2023-05-10T02:57:10;9.27;;;7.40;;
63738;SDS011;68816;45.558;10.070;2023-05-10T02:59:43;10.02;;;7.85;;
63738;SDS011;68816;45.558;10.070;2023-05-10T03:02:10;9.57;;;7.82;;
63738;SDS011;68816;45.558;10.070;2023-05-10T03:04:37;11.48;;;7.88;;
63738;SDS011;68816;45.558;10.070;2023-05-10T03:07:03;9.60;;;7.70;;
63738;SDS011;68816;45.558;10.070;2023-05-10T03:09:29;10.70;;;8.10;;
63738;SDS011;68816;45.558;10.070;2023-05-10T03:11:56;11.73;;;7.93;;
63738;SDS011;68816;45.558;10.070;2023-05-10T03:16:58;10.77;;;8.00;;
63738;SDS011;68816;45.558;10.070;2023-05-10T03:19:32;8.40;;;7.50;;
63738;SDS011;68816;45.558;10.070;2023-05-10T03:22:30;10.73;;;7.25;;
63738;SDS011;68816;45.558;10.070;2023-05-10T03:24:58;11.05;;;7.68;;
63738;SDS011;68816;45.558;10.070;2023-05-10T03:27:29;10.88;;;7.65;;
63738;SDS011;68816;45.558;10.070;2023-05-10T03:29:55;11.55;;;8.00;;
63738;SDS011;68816;45.558;10.070;2023-05-10T03:32:21;10.88;;;7.88;;
63738;SDS011;68816;45.558;10.070;2023-05-10T03:34:48;10.25;;;7.88;;
63738;SDS011;68816;45.558;10.070;2023-05-10T03:37:13;10.00;;;8.18;;
63738;SDS011;68816;45.558;10.070;2023-05-10T03:39:39;11.52;;;8.60;;
63738;SDS011;68816;45.558;10.070;2023-05-10T03:42:04;9.90;;;8.18;;
63738;SDS011;68816;45.558;10.070;2023-05-10T03:44:30;11.70;;;9.30;;
63738;SDS011;68816;45.558;10.070;2023-05-10T03:46:56;13.45;;;9.43;;
63738;SDS011;68816;45.558;10.070;2023-05-10T03:49:22;12.02;;;9.90;;
63738;SDS011;68816;45.558;10.070;2023-05-10T03:51:47;10.63;;;9.27;;
63738;SDS011;68816;45.558;10.070;2023-05-10T03:54:13;10.43;;;9.02;;
63738;SDS011;68816;45.558;10.070;2023-05-10T03:56:38;9.20;;;8.00;;
63738;SDS011;68816;45.558;10.070;2023-05-10T03:59:04;8.23;;;6.95;;
63738;SDS011;68816;45.558;10.070;2023-05-10T04:01:32;10.13;;;6.13;;
63738;SDS011;68816;45.558;10.070;2023-05-10T04:03:58;7.60;;;5.95;;
63738;SDS011;68816;45.558;10.070;2023-05-10T04:06:24;7.10;;;5.15;;
63738;SDS011;68816;45.558;10.070;2023-05-10T04:08:49;6.50;;;4.55;;
63738;SDS011;68816;45.558;10.070;2023-05-10T04:11:15;6.63;;;5.07;;
63738;SDS011;68816;45.558;10.070;2023-05-10T04:13:40;6.55;;;4.88;;
63738;SDS011;68816;45.558;10.070;2023-05-10T04:16:06;5.80;;;5.20;;
63738;SDS011;68816;45.558;10.070;2023-05-10T04:18:31;5.60;;;4.50;;
63738;SDS011;68816;45.558;10.070;2023-05-10T04:20:57;7.05;;;5.47;;
63738;SDS011;68816;45.558;10.070;2023-05-10T04:23:22;8.10;;;5.10;;
63738;SDS011;68816;45.558;10.070;2023-05-10T04:25:48;8.32;;;5.40;;
63738;SDS011;68816;45.558;10.070;2023-05-10T04:28:13;8.25;;;5.88;;
63738;SDS011;68816;45.558;10.070;2023-05-10T04:30:39;6.72;;;5.45;;
63738;SDS011;68816;45.558;10.070;2023-05-10T04:33:05;10.23;;;6.53;;
63738;SDS011;68816;45.558;10.070;2023-05-10T04:35:31;10.05;;;7.07;;
63738;SDS011;68816;45.558;10.070;2023-05-10T04:37:56;12.45;;;7.53;;
63738;SDS011;68816;45.558;10.070;2023-05-10T04:40:22;9.82;;;7.20;;
63738;SDS011;68816;45.558;10.070;2023-05-10T04:42:47;9.45;;;7.20;;
63738;SDS011;68816;45.558;10.070;2023-05-10T04:45:13;9.02;;;6.55;;
63738;SDS011;68816;45.558;10.070;2023-05-10T04:47:39;8.43;;;6.93;;
63738;SDS011;68816;45.558;10.070;2023-05-10T04:50:05;10.10;;;7.88;;
63738;SDS011;68816;45.558;10.070;2023-05-10T04:52:31;11.63;;;8.43;;
63738;SDS011;68816;45.558;10.070;2023-05-10T04:54:57;10.45;;;8.45;;
63738;SDS011;68816;45.558;10.070;2023-05-10T04:57:22;11.07;;;8.88;;
63738;SDS011;68816;45.558;10.070;2023-05-10T04:59:48;11.52;;;8.43;;
63738;SDS011;68816;45.558;10.070;2023-05-10T05:02:13;12.35;;;9.27;;
63738;SDS011;68816;45.558;10.070;2023-05-10T05:04:39;11.95;;;9.27;;
63738;SDS011;68816;45.558;10.070;2023-05-10T05:07:04;12.88;;;8.05;;
63738;SDS011;68816;45.558;10.070;2023-05-10T05:09:30;9.20;;;7.00;;
63738;SDS011;68816;45.558;10.070;2023-05-10T05:11:57;10.85;;;7.38;;
63738;SDS011;68816;45.558;10.070;2023-05-10T05:14:22;10.38;;;7.20;;
63738;SDS011;68816;45.558;10.070;2023-05-10T05:16:50;10.00;;;7.22;;
63738;SDS011;68816;45.558;10.070;2023-05-10T05:19:17;9.80;;;7.40;;
63738;SDS011;68816;45.558;10.070;2023-05-10T05:21:43;10.10;;;7.38;;
63738;SDS011;68816;45.558;10.070;2023-05-10T05:24:08;9.82;;;7.63;;
63738;SDS011;68816;45.558;10.070;2023-05-10T05:26:35;9.63;;;8.00;;
63738;SDS011;68816;45.558;10.070;2023-05-10T05:29:01;9.52;;;8.00;;
63738;SDS011;68816;45.558;10.070;2023-05-10T05:31:28;10.57;;;7.53;;
63738;SDS011;68816;45.558;10.070;2023-05-10T05:33:53;10.05;;;7.47;;
63738;SDS011;68816;45.558;10.070;2023-05-10T05:36:19;9.40;;;7.55;;
63738;SDS011;68816;45.558;10.070;2023-05-10T05:38:46;10.38;;;6.40;;
63738;SDS011;68816;45.558;10.070;2023-05-10T05:41:11;9.98;;;6.75;;
63738;SDS011;68816;45.558;10.070;2023-05-10T05:43:37;10.15;;;7.43;;
63738;SDS011;68816;45.558;10.070;2023-05-10T05:46:02;11.02;;;7.05;;
63738;SDS011;68816;45.558;10.070;2023-05-10T05:48:29;13.80;;;8.23;;
63738;SDS011;68816;45.558;10.070;2023-05-10T05:50:55;13.13;;;8.27;;
63738;SDS011;68816;45.558;10.070;2023-05-10T05:53:21;10.15;;;7.28;;
63738;SDS011;68816;45.558;10.070;2023-05-10T05:55:53;12.00;;;7.57;;
63738;SDS011;68816;45.558;10.070;2023-05-10T05:58:21;11.85;;;7.13;;
63738;SDS011;68816;45.558;10.070;2023-05-10T06:00:47;11.73;;;7.43;;
63738;SDS011;68816;45.558;10.070;2023-05-10T06:03:12;10.70;;;7.28;;
63738;SDS011;68816;45.558;10.070;2023-05-10T06:05:38;8.95;;;7.00;;
63738;SDS011;68816;45.558;10.070;2023-05-10T06:08:03;9.73;;;7.13;;
63738;SDS011;68816;45.558;10.070;2023-05-10T06:10:29;10.13;;;7.53;;
63738;SDS011;68816;45.558;10.070;2023-05-10T06:12:55;10.63;;;7.68;;
63738;SDS011;68816;45.558;10.070;2023-05-10T06:15:21;10.98;;;7.68;;
63738;SDS011;68816;45.558;10.070;2023-05-10T06:17:46;11.00;;;7.68;;
63738;SDS011;68816;45.558;10.070;2023-05-10T06:20:14;10.23;;;7.30;;
63738;SDS011;68816;45.558;10.070;2023-05-10T06:22:40;9.93;;;7.10;;
63738;SDS011;68816;45.558;10.070;2023-05-10T06:25:05;11.85;;;7.35;;
63738;SDS011;68816;45.558;10.070;2023-05-10T06:27:31;9.93;;;7.22;;
63738;SDS011;68816;45.558;10.070;2023-05-10T06:29:57;10.38;;;7.45;;
63738;SDS011;68816;45.558;10.070;2023-05-10T06:32:22;10.02;;;8.25;;
63738;SDS011;68816;45.558;10.070;2023-05-10T06:34:48;9.38;;;7.10;;
63738;SDS011;68816;45.558;10.070;2023-05-10T06:37:13;11.70;;;8.07;;
63738;SDS011;68816;45.558;10.070;2023-05-10T06:39:39;11.88;;;8.05;;
63738;SDS011;68816;45.558;10.070;2023-05-10T06:42:04;12.10;;;8.63;;
63738;SDS011;68816;45.558;10.070;2023-05-10T06:44:30;9.73;;;8.05;;
63738;SDS011;68816;45.558;10.070;2023-05-10T06:46:55;12.55;;;8.10;;
63738;SDS011;68816;45.558;10.070;2023-05-10T06:49:21;12.65;;;8.85;;
63738;SDS011;68816;45.558;10.070;2023-05-10T06:51:47;12.07;;;8.60;;
63738;SDS011;68816;45.558;10.070;2023-05-10T06:54:13;12.95;;;9.00;;
63738;SDS011;68816;45.558;10.070;2023-05-10T06:56:39;10.77;;;8.23;;
63738;SDS011;68816;45.558;10.070;2023-05-10T06:59:04;11.27;;;8.23;;
63738;SDS011;68816;45.558;10.070;2023-05-10T07:01:29;12.57;;;8.10;;
63738;SDS011;68816;45.558;10.070;2023-05-10T07:03:55;11.88;;;8.38;;
63738;SDS011;68816;45.558;10.070;2023-05-10T07:06:20;13.25;;;8.02;;
63738;SDS011;68816;45.558;10.070;2023-05-10T07:08:46;10.55;;;7.63;;
63738;SDS011;68816;45.558;10.070;2023-05-10T07:11:11;12.02;;;7.30;;
63738;SDS011;68816;45.558;10.070;2023-05-10T07:13:37;10.82;;;7.82;;
63738;SDS011;68816;45.558;10.070;2023-05-10T07:16:04;11.98;;;8.15;;
63738;SDS011;68816;45.558;10.070;2023-05-10T07:18:31;12.90;;;8.57;;
63738;SDS011;68816;45.558;10.070;2023-05-10T07:20:57;13.20;;;10.10;;
63738;SDS011;68816;45.558;10.070;2023-05-10T07:23:22;11.38;;;9.20;;
63738;SDS011;68816;45.558;10.070;2023-05-10T07:25:48;11.55;;;9.23;;
63738;SDS011;68816;45.558;10.070;2023-05-10T07:28:17;13.10;;;10.15;;
63738;SDS011;68816;45.558;10.070;2023-05-10T07:30:43;12.00;;;9.70;;
63738;SDS011;68816;45.558;10.070;2023-05-10T07:33:10;12.27;;;9.65;;
63738;SDS011;68816;45.558;10.070;2023-05-10T07:35:37;13.05;;;9.13;;
63738;SDS011;68816;45.558;10.070;2023-05-10T07:38:02;12.38;;;9.77;;
63738;SDS011;68816;45.558;10.070;2023-05-10T07:40:28;14.15;;;10.40;;
63738;SDS011;68816;45.558;10.070;2023-05-10T07:42:54;13.65;;;10.02;;
63738;SDS011;68816;45.558;10.070;2023-05-10T07:45:20;13.00;;;10.00;;
63738;SDS011;68816;45.558;10.070;2023-05-10T07:47:45;12.48;;;10.15;;
63738;SDS011;68816;45.558;10.070;2023-05-10T07:50:11;14.48;;;10.55;;
63738;SDS011;68816;45.558;10.070;2023-05-10T07:52:36;14.73;;;10.43;;
63738;SDS011;68816;45.558;10.070;2023-05-10T07:55:02;14.10;;;10.40;;
63738;SDS011;68816;45.558;10.070;2023-05-10T07:57:27;13.57;;;10.32;;
63738;SDS011;68816;45.558;10.070;2023-05-10T07:59:53;13.80;;;10.98;;
63738;SDS011;68816;45.558;10.070;2023-05-10T08:02:18;15.52;;;11.52;;
63738;SDS011;68816;45.558;10.070;2023-05-10T08:04:43;14.88;;;10.02;;
63738;SDS011;68816;45.558;10.070;2023-05-10T08:07:09;12.13;;;10.23;;
63738;SDS011;68816;45.558;10.070;2023-05-10T08:09:35;12.57;;;9.82;;
63738;SDS011;68816;45.558;10.070;2023-05-10T08:12:01;12.38;;;10.50;;
63738;SDS011;68816;45.558;10.070;2023-05-10T08:14:27;12.15;;;9.55;;
63738;SDS011;68816;45.558;10.070;2023-05-10T08:16:54;11.60;;;9.55;;
63738;SDS011;68816;45.558;10.070;2023-05-10T08:19:19;11.52;;;9.48;;
63738;SDS011;68816;45.558;10.070;2023-05-10T08:21:46;10.52;;;8.60;;
63738;SDS011;68816;45.558;10.070;2023-05-10T08:24:12;9.43;;;8.02;;
63738;SDS011;68816;45.558;10.070;2023-05-10T08:26:37;8.70;;;7.40;;
63738;SDS011;68816;45.558;10.070;2023-05-10T08:29:03;7.38;;;6.38;;
63738;SDS011;68816;45.558;10.070;2023-05-10T08:31:28;10.98;;;7.88;;
63738;SDS011;68816;45.558;10.070;2023-05-10T08:33:54;8.88;;;7.32;;
63738;SDS011;68816;45.558;10.070;2023-05-10T08:36:19;11.05;;;7.97;;
63738;SDS011;68816;45.558;10.070;2023-05-10T08:38:50;9.25;;;7.50;;
63738;SDS011;68816;45.558;10.070;2023-05-10T08:41:17;9.40;;;7.72;;
63738;SDS011;68816;45.558;10.070;2023-05-10T08:43:47;14.32;;;10.60;;
63738;SDS011;68816;45.558;10.070;2023-05-10T08:46:22;11.73;;;9.45;;
63738;SDS011;68816;45.558;10.070;2023-05-10T08:48:49;12.70;;;9.77;;
63738;SDS011;68816;45.558;10.070;2023-05-10T08:51:21;10.50;;;9.07;;
63738;SDS011;68816;45.558;10.070;2023-05-10T08:53:51;11.27;;;9.27;;
63738;SDS011;68816;45.558;10.070;2023-05-10T08:56:17;12.20;;;10.48;;
63738;SDS011;68816;45.558;10.070;2023-05-10T08:58:44;12.27;;;9.82;;
63738;SDS011;68816;45.558;10.070;2023-05-10T09:01:10;12.10;;;9.38;;
63738;SDS011;68816;45.558;10.070;2023-05-10T09:03:42;11.80;;;9.27;;
63738;SDS011;68816;45.558;10.070;2023-05-10T09:06:30;11.75;;;8.90;;
63738;SDS011;68816;45.558;10.070;2023-05-10T09:08:57;11.40;;;7.75;;
63738;SDS011;68816;45.558;10.070;2023-05-10T09:11:29;10.80;;;6.93;;
63738;SDS011;68816;45.558;10.070;2023-05-10T09:13:55;9.48;;;6.97;;
63738;SDS011;68816;45.558;10.070;2023-05-10T09:16:35;7.25;;;6.50;;
63738;SDS011;68816;45.558;10.070;2023-05-10T09:19:06;6.95;;;6.25;;
63738;SDS011;68816;45.558;10.070;2023-05-10T09:21:38;7.90;;;7.10;;
63738;SDS011;68816;45.558;10.070;2023-05-10T09:24:06;9.85;;;7.35;;
63738;SDS011;68816;45.558;10.070;2023-05-10T09:26:35;8.15;;;7.20;;
63738;SDS011;68816;45.558;10.070;2023-05-10T09:29:02;7.53;;;6.72;;
63738;SDS011;68816;45.558;10.070;2023-05-10T09:34:29;7.65;;;6.25;;
63738;SDS011;68816;45.558;10.070;2023-05-10T09:36:57;8.52;;;7.50;;
63738;SDS011;68816;45.558;10.070;2023-05-10T09:39:40;7.80;;;7.00;;
63738;SDS011;68816;45.558;10.070;2023-05-10T09:42:29;6.85;;;5.85;;
63738;SDS011;68816;45.558;10.070;2023-05-10T09:44:57;7.60;;;6.80;;
63738;SDS011;68816;45.558;10.070;2023-05-10T09:47:33;7.05;;;6.35;;
63738;SDS011;68816;45.558;10.070;2023-05-10T09:50:11;6.40;;;5.80;;
63738;SDS011;68816;45.558;10.070;2023-05-10T09:52:46;6.38;;;5.78;;
63738;SDS011;68816;45.558;10.070;2023-05-10T09:58:06;6.40;;;5.80;;
63738;SDS011;68816;45.558;10.070;2023-05-10T10:00:53;6.85;;;6.13;;
63738;SDS011;68816;45.558;10.070;2023-05-10T10:03:20;6.25;;;5.65;;
63738;SDS011;68816;45.558;10.070;2023-05-10T10:05:46;6.53;;;5.82;;
63738;SDS011;68816;45.558;10.070;2023-05-10T10:08:13;6.45;;;5.50;;
63738;SDS011;68816;45.558;10.070;2023-05-10T10:10:40;6.05;;;5.45;;
63738;SDS011;68816;45.558;10.070;2023-05-10T10:13:06;7.55;;;5.75;;
63738;SDS011;68816;45.558;10.070;2023-05-10T10:15:35;7.65;;;5.97;;
63738;SDS011;68816;45.558;10.070;2023-05-10T10:18:00;7.85;;;5.50;;
63738;SDS011;68816;45.558;10.070;2023-05-10T10:20:26;6.28;;;5.28;;
63738;SDS011;68816;45.558;10.070;2023-05-10T10:22:53;6.72;;;5.45;;
63738;SDS011;68816;45.558;10.070;2023-05-10T10:25:19;6.18;;;5.57;;
63738;SDS011;68816;45.558;10.070;2023-05-10T10:27:55;7.30;;;6.10;;
63738;SDS011;68816;45.558;10.070;2023-05-10T10:30:48;7.90;;;6.35;;
63738;SDS011;68816;45.558;10.070;2023-05-10T10:35:58;7.53;;;6.72;;
63738;SDS011;68816;45.558;10.070;2023-05-10T10:38:25;8.07;;;6.85;;
63738;SDS011;68816;45.558;10.070;2023-05-10T10:41:49;7.38;;;6.63;;
63738;SDS011;68816;45.558;10.070;2023-05-10T10:52:31;8.80;;;7.20;;
63738;SDS011;68816;45.558;10.070;2023-05-10T10:55:15;7.00;;;6.30;;
63738;SDS011;68816;45.558;10.070;2023-05-10T10:57:50;7.45;;;6.20;;
63738;SDS011;68816;45.558;10.070;2023-05-10T11:02:45;7.00;;;6.25;;
63738;SDS011;68816;45.558;10.070;2023-05-10T11:10:52;8.55;;;7.63;;
63738;SDS011;68816;45.558;10.070;2023-05-10T11:16:16;10.70;;;8.20;;
63738;SDS011;68816;45.558;10.070;2023-05-10T11:19:01;9.80;;;8.65;;
63738;SDS011;68816;45.558;10.070;2023-05-10T11:21:33;10.35;;;9.23;;
63738;SDS011;68816;45.558;10.070;2023-05-10T11:24:29;9.40;;;8.40;;
63738;SDS011;68816;45.558;10.070;2023-05-10T11:26:56;9.55;;;8.57;;
63738;SDS011;68816;45.558;10.070;2023-05-10T11:29:22;9.13;;;8.00;;
63738;SDS011;68816;45.558;10.070;2023-05-10T11:31:48;9.93;;;8.93;;
63738;SDS011;68816;45.558;10.070;2023-05-10T11:37:10;10.15;;;9.15;;
63738;SDS011;68816;45.558;10.070;2023-05-10T11:39:45;10.15;;;8.93;;
63738;SDS011;68816;45.558;10.070;2023-05-10T11:42:12;8.35;;;7.55;;
63738;SDS011;68816;45.558;10.070;2023-05-10T11:44:37;8.63;;;7.75;;
63738;SDS011;68816;45.558;10.070;2023-05-10T11:47:03;8.05;;;6.93;;
63738;SDS011;68816;45.558;10.070;2023-05-10T11:49:29;8.57;;;7.65;;
63738;SDS011;68816;45.558;10.070;2023-05-10T11:52:05;10.15;;;7.60;;
63738;SDS011;68816;45.558;10.070;2023-05-10T11:54:31;8.60;;;7.68;;
63738;SDS011;68816;45.558;10.070;2023-05-10T11:56:58;8.48;;;6.88;;
63738;SDS011;68816;45.558;10.070;2023-05-10T11:59:27;8.85;;;7.78;;
63738;SDS011;68816;45.558;10.070;2023-05-10T12:01:54;8.77;;;7.70;;
63738;SDS011;68816;45.558;10.070;2023-05-10T12:04:20;7.93;;;7.20;;
63738;SDS011;68816;45.558;10.070;2023-05-10T12:06:46;8.93;;;8.02;;
63738;SDS011;68816;45.558;10.070;2023-05-10T12:09:13;7.63;;;6.82;;
63738;SDS011;68816;45.558;10.070;2023-05-10T12:11:40;7.88;;;7.07;;
63738;SDS011;68816;45.558;10.070;2023-05-10T12:14:07;8.43;;;7.50;;
63738;SDS011;68816;45.558;10.070;2023-05-10T12:16:33;7.80;;;6.88;;
63738;SDS011;68816;45.558;10.070;2023-05-10T12:18:59;8.77;;;7.78;;
63738;SDS011;68816;45.558;10.070;2023-05-10T12:21:26;8.95;;;8.05;;
63738;SDS011;68816;45.558;10.070;2023-05-10T12:23:54;9.00;;;7.80;;
63738;SDS011;68816;45.558;10.070;2023-05-10T12:26:25;9.82;;;7.95;;
63738;SDS011;68816;45.558;10.070;2023-05-10T12:28:52;8.75;;;7.45;;
63738;SDS011;68816;45.558;10.070;2023-05-10T12:31:18;8.32;;;7.38;;
63738;SDS011;68816;45.558;10.070;2023-05-10T12:33:44;10.18;;;9.18;;
63738;SDS011;68816;45.558;10.070;2023-05-10T12:36:12;8.82;;;7.88;;
63738;SDS011;68816;45.558;10.070;2023-05-10T12:38:40;7.60;;;6.15;;
63738;SDS011;68816;45.558;10.070;2023-05-10T12:41:14;8.23;;;7.25;;
63738;SDS011;68816;45.558;10.070;2023-05-10T12:43:42;6.70;;;5.97;;
63738;SDS011;68816;45.558;10.070;2023-05-10T12:46:12;7.95;;;7.13;;
63738;SDS011;68816;45.558;10.070;2023-05-10T12:48:39;8.25;;;7.25;;
63738;SDS011;68816;45.558;10.070;2023-05-10T12:51:05;7.20;;;6.13;;
63738;SDS011;68816;45.558;10.070;2023-05-10T12:53:34;8.23;;;7.43;;
63738;SDS011;68816;45.558;10.070;2023-05-10T12:56:00;9.63;;;7.95;;
63738;SDS011;68816;45.558;10.070;2023-05-10T12:58:26;9.40;;;8.50;;
63738;SDS011;68816;45.558;10.070;2023-05-10T13:00:52;8.77;;;7.85;;
63738;SDS011;68816;45.558;10.070;2023-05-10T13:03:17;8.38;;;7.57;;
63738;SDS011;68816;45.558;10.070;2023-05-10T13:05:43;8.32;;;7.40;;
63738;SDS011;68816;45.558;10.070;2023-05-10T13:08:08;8.25;;;7.45;;
63738;SDS011;68816;45.558;10.070;2023-05-10T13:10:34;6.85;;;6.15;;
63738;SDS011;68816;45.558;10.070;2023-05-10T13:12:59;7.35;;;6.65;;
63738;SDS011;68816;45.558;10.070;2023-05-10T13:15:25;8.80;;;7.32;;
63738;SDS011;68816;45.558;10.070;2023-05-10T13:17:51;7.15;;;6.45;;
63738;SDS011;68816;45.558;10.070;2023-05-10T13:20:16;10.48;;;8.10;;
63738;SDS011;68816;45.558;10.070;2023-05-10T13:22:43;8.32;;;7.53;;
63738;SDS011;68816;45.558;10.070;2023-05-10T13:25:09;8.88;;;7.97;;
63738;SDS011;68816;45.558;10.070;2023-05-10T13:27:35;9.60;;;8.63;;
63738;SDS011;68816;45.558;10.070;2023-05-10T13:30:01;7.90;;;7.10;;
63738;SDS011;68816;45.558;10.070;2023-05-10T13:32:28;8.10;;;6.80;;
63738;SDS011;68816;45.558;10.070;2023-05-10T13:34:54;11.13;;;7.65;;
63738;SDS011;68816;45.558;10.070;2023-05-10T13:37:20;8.45;;;7.55;;
63738;SDS011;68816;45.558;10.070;2023-05-10T13:39:46;9.38;;;8.48;;
63738;SDS011;68816;45.558;10.070;2023-05-10T13:42:13;10.10;;;8.95;;
63738;SDS011;68816;45.558;10.070;2023-05-10T13:44:38;9.00;;;8.10;;
63738;SDS011;68816;45.558;10.070;2023-05-10T13:47:04;9.25;;;8.30;;
63738;SDS011;68816;45.558;10.070;2023-05-10T13:49:30;9.32;;;7.85;;
63738;SDS011;68816;45.558;10.070;2023-05-10T13:51:55;8.63;;;7.30;;
63738;SDS011;68816;45.558;10.070;2023-05-10T13:54:21;9.52;;;8.20;;
63738;SDS011;68816;45.558;10.070;2023-05-10T13:56:47;10.18;;;8.70;;
63738;SDS011;68816;45.558;10.070;2023-05-10T13:59:13;9.60;;;8.20;;
63738;SDS011;68816;45.558;10.070;2023-05-10T14:01:41;10.07;;;9.05;;
63738;SDS011;68816;45.558;10.070;2023-05-10T14:04:07;10.23;;;8.35;;
63738;SDS011;68816;45.558;10.070;2023-05-10T14:06:35;8.90;;;8.00;;
63738;SDS011;68816;45.558;10.070;2023-05-10T14:09:01;10.95;;;8.50;;
63738;SDS011;68816;45.558;10.070;2023-05-10T14:11:27;8.88;;;7.97;;
63738;SDS011;68816;45.558;10.070;2023-05-10T14:13:53;8.95;;;8.05;;
63738;SDS011;68816;45.558;10.070;2023-05-10T14:16:19;10.35;;;9.35;;
63738;SDS011;68816;45.558;10.070;2023-05-10T14:18:45;9.38;;;8.25;;
63738;SDS011;68816;45.558;10.070;2023-05-10T14:21:11;9.02;;;8.10;;
63738;SDS011;68816;45.558;10.070;2023-05-10T14:23:37;9.07;;;8.13;;
63738;SDS011;68816;45.558;10.070;2023-05-10T14:26:02;9.50;;;8.50;;
63738;SDS011;68816;45.558;10.070;2023-05-10T14:28:28;10.30;;;9.02;;
63738;SDS011;68816;45.558;10.070;2023-05-10T14:30:53;10.40;;;8.93;;
63738;SDS011;68816;45.558;10.070;2023-05-10T14:33:19;9.82;;;8.82;;
63738;SDS011;68816;45.558;10.070;2023-05-10T14:35:45;9.43;;;8.43;;
63738;SDS011;68816;45.558;10.070;2023-05-10T14:38:11;10.38;;;9.10;;
63738;SDS011;68816;45.558;10.070;2023-05-10T14:40:47;10.25;;;8.88;;
63738;SDS011;68816;45.558;10.070;2023-05-10T14:43:12;10.50;;;9.38;;
63738;SDS011;68816;45.558;10.070;2023-05-10T14:45:38;11.35;;;9.98;;
63738;SDS011;68816;45.558;10.070;2023-05-10T14:48:03;10.50;;;9.40;;
63738;SDS011;68816;45.558;10.070;2023-05-10T14:50:29;11.77;;;10.50;;
63738;SDS011;68816;45.558;10.070;2023-05-10T14:52:56;12.35;;;10.38;;
63738;SDS011;68816;45.558;10.070;2023-05-10T14:55:21;11.45;;;9.43;;
63738;SDS011;68816;45.558;10.070;2023-05-10T14:57:47;9.98;;;8.35;;
63738;SDS011;68816;45.558;10.070;2023-05-10T15:00:20;11.73;;;8.05;;
63738;SDS011;68816;45.558;10.070;2023-05-10T15:02:46;10.77;;;9.23;;
63738;SDS011;68816;45.558;10.070;2023-05-10T15:05:14;9.57;;;8.57;;
63738;SDS011;68816;45.558;10.070;2023-05-10T15:07:39;10.30;;;9.18;;
63738;SDS011;68816;45.558;10.070;2023-05-10T15:10:05;13.75;;;10.07;;
63738;SDS011;68816;45.558;10.070;2023-05-10T15:12:31;10.98;;;9.88;;
63738;SDS011;68816;45.558;10.070;2023-05-10T15:14:56;12.23;;;10.30;;
63738;SDS011;68816;45.558;10.070;2023-05-10T15:17:22;12.60;;;9.77;;
63738;SDS011;68816;45.558;10.070;2023-05-10T15:19:47;10.93;;;9.82;;
63738;SDS011;68816;45.558;10.070;2023-05-10T15:22:14;11.18;;;10.02;;
63738;SDS011;68816;45.558;10.070;2023-05-10T15:24:40;12.40;;;11.05;;